sensor_id;sensor_type;location;lat;lon;timestamp;P1;durP1;ratioP1;P2;durP2;ratioP2
43962;SDS011;29622;45.534;9.242;2023-06-04T00:04:53;22.67;;;13.65;;
43962;SDS011;29622;45.534;9.242;2023-06-04T00:09:54;23.02;;;15.57;;
43962;SDS011;29622;45.534;9.242;2023-06-04T00:14:54;23.90;;;14.02;;
43962;SDS011;29622;45.534;9.242;2023-06-04T00:19:55;29.73;;;16.33;;
43962;SDS011;29622;45.534;9.242;2023-06-04T00:24:56;22.00;;;14.18;;
43962;SDS011;29622;45.534;9.242;2023-06-04T00:29:57;24.85;;;16.40;;
43962;SDS011;29622;45.534;9.242;2023-06-04T00:34:57;19.42;;;14.10;;
43962;SDS011;29622;45.534;9.242;2023-06-04T00:39:58;22.42;;;15.77;;
43962;SDS011;29622;45.534;9.242;2023-06-04T00:44:59;30.88;;;16.70;;
43962;SDS011;29622;45.534;9.242;2023-06-04T00:50:00;21.45;;;14.48;;
43962;SDS011;29622;45.534;9.242;2023-06-04T00:55:02;20.80;;;15.45;;
43962;SDS011;29622;45.534;9.242;2023-06-04T01:00:03;24.08;;;15.77;;
43962;SDS011;29622;45.534;9.242;2023-06-04T01:10:29;20.33;;;14.77;;
43962;SDS011;29622;45.534;9.242;2023-06-04T01:15:30;22.67;;;13.93;;
43962;SDS011;29622;45.534;9.242;2023-06-04T01:20:36;20.23;;;14.32;;
43962;SDS011;29622;45.534;9.242;2023-06-04T01:25:41;19.05;;;13.77;;
43962;SDS011;29622;45.534;9.242;2023-06-04T01:30:45;19.90;;;13.82;;
43962;SDS011;29622;45.534;9.242;2023-06-04T01:41:02;19.27;;;13.77;;
43962;SDS011;29622;45.534;9.242;2023-06-04T01:46:12;21.13;;;14.57;;
43962;SDS011;29622;45.534;9.242;2023-06-04T01:51:17;19.17;;;12.90;;
43962;SDS011;29622;45.534;9.242;2023-06-04T01:56:17;20.83;;;12.80;;
43962;SDS011;29622;45.534;9.242;2023-06-04T02:01:21;23.80;;;13.43;;
43962;SDS011;29622;45.534;9.242;2023-06-04T02:06:22;19.27;;;13.20;;
43962;SDS011;29622;45.534;9.242;2023-06-04T02:11:26;20.00;;;13.60;;
43962;SDS011;29622;45.534;9.242;2023-06-04T02:16:27;17.98;;;12.00;;
43962;SDS011;29622;45.534;9.242;2023-06-04T02:21:28;22.13;;;13.25;;
43962;SDS011;29622;45.534;9.242;2023-06-04T02:26:31;18.77;;;13.40;;
43962;SDS011;29622;45.534;9.242;2023-06-04T02:31:33;19.35;;;13.73;;
43962;SDS011;29622;45.534;9.242;2023-06-04T02:36:34;21.58;;;12.30;;
43962;SDS011;29622;45.534;9.242;2023-06-04T02:41:35;22.95;;;12.75;;
43962;SDS011;29622;45.534;9.242;2023-06-04T02:46:36;18.25;;;13.68;;
43962;SDS011;29622;45.534;9.242;2023-06-04T02:51:37;22.63;;;14.93;;
43962;SDS011;29622;45.534;9.242;2023-06-04T02:56:38;24.08;;;14.13;;
43962;SDS011;29622;45.534;9.242;2023-06-04T03:01:40;22.15;;;14.68;;
43962;SDS011;29622;45.534;9.242;2023-06-04T03:06:41;24.15;;;15.15;;
43962;SDS011;29622;45.534;9.242;2023-06-04T03:11:44;20.60;;;15.73;;
43962;SDS011;29622;45.534;9.242;2023-06-04T03:16:45;21.40;;;12.93;;
43962;SDS011;29622;45.534;9.242;2023-06-04T03:21:46;18.35;;;13.05;;
43962;SDS011;29622;45.534;9.242;2023-06-04T03:26:50;21.85;;;14.35;;
43962;SDS011;29622;45.534;9.242;2023-06-04T03:31:52;18.98;;;11.32;;
43962;SDS011;29622;45.534;9.242;2023-06-04T03:36:54;18.95;;;10.73;;
43962;SDS011;29622;45.534;9.242;2023-06-04T03:41:56;19.20;;;13.52;;
43962;SDS011;29622;45.534;9.242;2023-06-04T03:47:09;20.30;;;13.55;;
43962;SDS011;29622;45.534;9.242;2023-06-04T03:52:11;22.00;;;11.73;;
43962;SDS011;29622;45.534;9.242;2023-06-04T03:57:13;16.00;;;7.03;;
43962;SDS011;29622;45.534;9.242;2023-06-04T04:02:15;7.57;;;4.82;;
43962;SDS011;29622;45.534;9.242;2023-06-04T04:07:18;8.23;;;3.33;;
43962;SDS011;29622;45.534;9.242;2023-06-04T04:12:21;6.80;;;2.92;;
43962;SDS011;29622;45.534;9.242;2023-06-04T04:17:23;7.47;;;2.60;;
43962;SDS011;29622;45.534;9.242;2023-06-04T04:22:28;5.82;;;2.47;;
43962;SDS011;29622;45.534;9.242;2023-06-04T04:27:29;5.65;;;2.40;;
43962;SDS011;29622;45.534;9.242;2023-06-04T04:32:31;4.10;;;2.20;;
43962;SDS011;29622;45.534;9.242;2023-06-04T04:42:42;6.53;;;2.03;;
43962;SDS011;29622;45.534;9.242;2023-06-04T04:47:47;5.55;;;2.15;;
43962;SDS011;29622;45.534;9.242;2023-06-04T04:52:48;4.97;;;2.10;;
43962;SDS011;29622;45.534;9.242;2023-06-04T04:57:53;4.25;;;1.80;;
43962;SDS011;29622;45.534;9.242;2023-06-04T05:02:54;3.80;;;1.45;;
43962;SDS011;29622;45.534;9.242;2023-06-04T05:07:55;2.55;;;1.15;;
43962;SDS011;29622;45.534;9.242;2023-06-04T05:13:02;2.30;;;1.17;;
43962;SDS011;29622;45.534;9.242;2023-06-04T05:18:13;2.58;;;1.30;;
43962;SDS011;29622;45.534;9.242;2023-06-04T05:23:16;3.83;;;1.13;;
43962;SDS011;29622;45.534;9.242;2023-06-04T05:28:21;2.55;;;1.02;;
43962;SDS011;29622;45.534;9.242;2023-06-04T05:33:25;7.13;;;1.15;;
43962;SDS011;29622;45.534;9.242;2023-06-04T05:38:32;2.55;;;1.27;;
43962;SDS011;29622;45.534;9.242;2023-06-04T05:43:37;5.13;;;1.27;;
43962;SDS011;29622;45.534;9.242;2023-06-04T05:48:40;3.05;;;1.30;;
43962;SDS011;29622;45.534;9.242;2023-06-04T05:53:41;3.38;;;1.55;;
43962;SDS011;29622;45.534;9.242;2023-06-04T05:58:42;5.93;;;1.58;;
43962;SDS011;29622;45.534;9.242;2023-06-04T06:03:44;10.02;;;1.48;;
43962;SDS011;29622;45.534;9.242;2023-06-04T06:08:45;6.10;;;1.70;;
43962;SDS011;29622;45.534;9.242;2023-06-04T06:13:47;2.95;;;1.20;;
43962;SDS011;29622;45.534;9.242;2023-06-04T06:18:49;5.45;;;1.55;;
43962;SDS011;29622;45.534;9.242;2023-06-04T06:23:49;10.05;;;1.55;;
43962;SDS011;29622;45.534;9.242;2023-06-04T06:28:50;3.90;;;1.20;;
43962;SDS011;29622;45.534;9.242;2023-06-04T06:33:51;3.90;;;1.50;;
43962;SDS011;29622;45.534;9.242;2023-06-04T06:38:52;13.05;;;1.95;;
43962;SDS011;29622;45.534;9.242;2023-06-04T06:43:52;2.88;;;0.90;;
43962;SDS011;29622;45.534;9.242;2023-06-04T06:48:53;9.20;;;3.08;;
43962;SDS011;29622;45.534;9.242;2023-06-04T06:53:54;6.93;;;1.65;;
43962;SDS011;29622;45.534;9.242;2023-06-04T06:58:54;18.60;;;3.00;;
43962;SDS011;29622;45.534;9.242;2023-06-04T07:03:55;21.70;;;3.42;;
43962;SDS011;29622;45.534;9.242;2023-06-04T07:08:56;25.13;;;3.58;;
43962;SDS011;29622;45.534;9.242;2023-06-04T07:13:56;44.25;;;6.88;;
43962;SDS011;29622;45.534;9.242;2023-06-04T07:18:57;25.08;;;5.38;;
43962;SDS011;29622;45.534;9.242;2023-06-04T07:23:57;18.15;;;3.10;;
43962;SDS011;29622;45.534;9.242;2023-06-04T07:28:58;12.30;;;3.17;;
43962;SDS011;29622;45.534;9.242;2023-06-04T07:33:59;6.22;;;1.70;;
43962;SDS011;29622;45.534;9.242;2023-06-04T07:38:59;10.13;;;2.58;;
43962;SDS011;29622;45.534;9.242;2023-06-04T07:44:03;5.20;;;1.83;;
43962;SDS011;29622;45.534;9.242;2023-06-04T07:49:04;4.30;;;1.92;;
43962;SDS011;29622;45.534;9.242;2023-06-04T07:54:04;4.93;;;1.67;;
43962;SDS011;29622;45.534;9.242;2023-06-04T07:59:05;5.22;;;1.98;;
43962;SDS011;29622;45.534;9.242;2023-06-04T08:04:06;7.90;;;3.20;;
43962;SDS011;29622;45.534;9.242;2023-06-04T08:09:07;5.57;;;2.55;;
43962;SDS011;29622;45.534;9.242;2023-06-04T08:14:13;5.20;;;1.98;;
43962;SDS011;29622;45.534;9.242;2023-06-04T08:19:14;6.25;;;2.40;;
43962;SDS011;29622;45.534;9.242;2023-06-04T08:24:15;7.03;;;2.63;;
43962;SDS011;29622;45.534;9.242;2023-06-04T08:29:16;5.45;;;3.13;;
43962;SDS011;29622;45.534;9.242;2023-06-04T08:34:17;8.38;;;3.75;;
43962;SDS011;29622;45.534;9.242;2023-06-04T08:39:18;11.45;;;3.53;;
43962;SDS011;29622;45.534;9.242;2023-06-04T08:44:18;11.90;;;4.55;;
43962;SDS011;29622;45.534;9.242;2023-06-04T08:49:19;17.25;;;4.25;;
43962;SDS011;29622;45.534;9.242;2023-06-04T08:54:22;11.77;;;4.18;;
43962;SDS011;29622;45.534;9.242;2023-06-04T08:59:22;11.32;;;2.15;;
43962;SDS011;29622;45.534;9.242;2023-06-04T09:04:23;7.50;;;4.32;;
43962;SDS011;29622;45.534;9.242;2023-06-04T09:09:24;6.95;;;4.13;;
43962;SDS011;29622;45.534;9.242;2023-06-04T09:14:26;16.55;;;5.45;;
43962;SDS011;29622;45.534;9.242;2023-06-04T09:19:26;14.00;;;7.43;;
43962;SDS011;29622;45.534;9.242;2023-06-04T09:24:40;26.83;;;8.35;;
43962;SDS011;29622;45.534;9.242;2023-06-04T09:29:57;8.15;;;5.50;;
43962;SDS011;29622;45.534;9.242;2023-06-04T09:35:11;15.63;;;5.80;;
43962;SDS011;29622;45.534;9.242;2023-06-04T09:40:16;13.80;;;3.95;;
43962;SDS011;29622;45.534;9.242;2023-06-04T09:45:27;8.68;;;4.68;;
43962;SDS011;29622;45.534;9.242;2023-06-04T09:50:30;12.73;;;4.43;;
43962;SDS011;29622;45.534;9.242;2023-06-04T09:55:33;10.65;;;5.32;;
43962;SDS011;29622;45.534;9.242;2023-06-04T10:00:34;10.38;;;4.45;;
43962;SDS011;29622;45.534;9.242;2023-06-04T10:05:35;9.68;;;4.78;;
43962;SDS011;29622;45.534;9.242;2023-06-04T10:10:36;17.52;;;6.07;;
43962;SDS011;29622;45.534;9.242;2023-06-04T10:15:38;14.18;;;7.50;;
43962;SDS011;29622;45.534;9.242;2023-06-04T10:20:39;12.68;;;5.38;;
43962;SDS011;29622;45.534;9.242;2023-06-04T10:25:40;5.70;;;3.58;;
43962;SDS011;29622;45.534;9.242;2023-06-04T10:30:41;6.13;;;3.08;;
43962;SDS011;29622;45.534;9.242;2023-06-04T10:35:42;12.07;;;8.85;;
43962;SDS011;29622;45.534;9.242;2023-06-04T10:40:43;12.75;;;7.80;;
43962;SDS011;29622;45.534;9.242;2023-06-04T10:45:44;8.80;;;4.97;;
43962;SDS011;29622;45.534;9.242;2023-06-04T10:50:51;12.05;;;5.97;;
43962;SDS011;29622;45.534;9.242;2023-06-04T10:55:53;10.23;;;5.90;;
43962;SDS011;29622;45.534;9.242;2023-06-04T11:00:53;12.93;;;7.95;;
43962;SDS011;29622;45.534;9.242;2023-06-04T11:05:54;12.68;;;7.90;;
43962;SDS011;29622;45.534;9.242;2023-06-04T11:10:54;11.80;;;8.00;;
43962;SDS011;29622;45.534;9.242;2023-06-04T11:15:55;15.90;;;8.35;;
43962;SDS011;29622;45.534;9.242;2023-06-04T11:21:00;13.32;;;8.18;;
43962;SDS011;29622;45.534;9.242;2023-06-04T11:26:01;9.93;;;4.32;;
43962;SDS011;29622;45.534;9.242;2023-06-04T11:31:02;10.68;;;6.43;;
43962;SDS011;29622;45.534;9.242;2023-06-04T11:36:03;11.30;;;7.07;;
43962;SDS011;29622;45.534;9.242;2023-06-04T11:41:04;14.35;;;6.85;;
43962;SDS011;29622;45.534;9.242;2023-06-04T11:46:06;14.45;;;8.38;;
43962;SDS011;29622;45.534;9.242;2023-06-04T11:51:08;12.80;;;6.28;;
43962;SDS011;29622;45.534;9.242;2023-06-04T11:56:11;10.18;;;5.28;;
43962;SDS011;29622;45.534;9.242;2023-06-04T12:01:12;7.90;;;3.85;;
43962;SDS011;29622;45.534;9.242;2023-06-04T12:06:15;6.20;;;3.40;;
43962;SDS011;29622;45.534;9.242;2023-06-04T12:11:27;6.55;;;3.83;;
43962;SDS011;29622;45.534;9.242;2023-06-04T12:16:29;5.95;;;3.85;;
43962;SDS011;29622;45.534;9.242;2023-06-04T12:21:29;5.35;;;3.40;;
43962;SDS011;29622;45.534;9.242;2023-06-04T12:26:30;6.25;;;2.83;;
43962;SDS011;29622;45.534;9.242;2023-06-04T12:31:32;6.38;;;3.85;;
43962;SDS011;29622;45.534;9.242;2023-06-04T12:36:34;5.78;;;3.72;;
43962;SDS011;29622;45.534;9.242;2023-06-04T12:41:34;8.02;;;4.47;;
43962;SDS011;29622;45.534;9.242;2023-06-04T12:46:35;7.50;;;4.70;;
43962;SDS011;29622;45.534;9.242;2023-06-04T12:51:35;6.38;;;3.70;;
43962;SDS011;29622;45.534;9.242;2023-06-04T12:56:39;11.13;;;5.07;;
43962;SDS011;29622;45.534;9.242;2023-06-04T13:01:43;9.40;;;3.83;;
43962;SDS011;29622;45.534;9.242;2023-06-04T13:06:44;4.90;;;3.03;;
43962;SDS011;29622;45.534;9.242;2023-06-04T13:11:48;4.18;;;2.35;;
43962;SDS011;29622;45.534;9.242;2023-06-04T13:16:48;6.55;;;3.67;;
43962;SDS011;29622;45.534;9.242;2023-06-04T13:21:51;4.72;;;2.58;;
43962;SDS011;29622;45.534;9.242;2023-06-04T13:26:51;6.30;;;3.40;;
43962;SDS011;29622;45.534;9.242;2023-06-04T13:31:52;5.28;;;3.38;;
43962;SDS011;29622;45.534;9.242;2023-06-04T13:36:54;5.60;;;3.60;;
43962;SDS011;29622;45.534;9.242;2023-06-04T13:41:55;5.03;;;2.50;;
43962;SDS011;29622;45.534;9.242;2023-06-04T13:46:58;5.65;;;3.00;;
43962;SDS011;29622;45.534;9.242;2023-06-04T13:52:00;4.95;;;2.83;;
43962;SDS011;29622;45.534;9.242;2023-06-04T13:57:01;6.68;;;2.88;;
43962;SDS011;29622;45.534;9.242;2023-06-04T14:02:03;5.47;;;2.88;;
43962;SDS011;29622;45.534;9.242;2023-06-04T14:07:04;6.50;;;3.10;;
43962;SDS011;29622;45.534;9.242;2023-06-04T14:12:06;6.53;;;2.83;;
43962;SDS011;29622;45.534;9.242;2023-06-04T14:17:08;5.22;;;3.15;;
43962;SDS011;29622;45.534;9.242;2023-06-04T14:22:09;5.85;;;3.38;;
43962;SDS011;29622;45.534;9.242;2023-06-04T14:27:12;8.43;;;4.70;;
43962;SDS011;29622;45.534;9.242;2023-06-04T14:32:13;4.60;;;2.25;;
43962;SDS011;29622;45.534;9.242;2023-06-04T14:37:13;16.75;;;10.30;;
43962;SDS011;29622;45.534;9.242;2023-06-04T14:42:15;7.20;;;3.90;;
43962;SDS011;29622;45.534;9.242;2023-06-04T14:47:16;6.50;;;3.28;;
43962;SDS011;29622;45.534;9.242;2023-06-04T14:52:16;5.10;;;3.45;;
43962;SDS011;29622;45.534;9.242;2023-06-04T14:57:17;4.65;;;2.72;;
43962;SDS011;29622;45.534;9.242;2023-06-04T15:02:19;5.22;;;2.72;;
43962;SDS011;29622;45.534;9.242;2023-06-04T15:07:21;6.85;;;3.40;;
43962;SDS011;29622;45.534;9.242;2023-06-04T15:12:22;6.32;;;3.25;;
43962;SDS011;29622;45.534;9.242;2023-06-04T15:17:23;9.55;;;5.20;;
43962;SDS011;29622;45.534;9.242;2023-06-04T15:22:24;5.00;;;3.03;;
43962;SDS011;29622;45.534;9.242;2023-06-04T15:27:26;11.63;;;4.72;;
43962;SDS011;29622;45.534;9.242;2023-06-04T15:32:26;6.53;;;4.00;;
43962;SDS011;29622;45.534;9.242;2023-06-04T15:37:27;11.82;;;4.47;;
43962;SDS011;29622;45.534;9.242;2023-06-04T15:42:28;4.75;;;2.80;;
43962;SDS011;29622;45.534;9.242;2023-06-04T15:47:28;6.03;;;3.40;;
43962;SDS011;29622;45.534;9.242;2023-06-04T15:52:29;6.53;;;3.30;;
43962;SDS011;29622;45.534;9.242;2023-06-04T15:57:30;7.55;;;2.95;;
43962;SDS011;29622;45.534;9.242;2023-06-04T16:02:30;4.60;;;3.40;;
43962;SDS011;29622;45.534;9.242;2023-06-04T16:07:31;9.30;;;4.22;;
43962;SDS011;29622;45.534;9.242;2023-06-04T16:12:32;8.20;;;3.97;;
43962;SDS011;29622;45.534;9.242;2023-06-04T16:17:32;7.93;;;4.03;;
43962;SDS011;29622;45.534;9.242;2023-06-04T16:22:33;34.55;;;7.10;;
43962;SDS011;29622;45.534;9.242;2023-06-04T16:27:33;10.82;;;5.22;;
43962;SDS011;29622;45.534;9.242;2023-06-04T16:32:35;11.48;;;6.65;;
43962;SDS011;29622;45.534;9.242;2023-06-04T16:37:36;7.97;;;5.43;;
43962;SDS011;29622;45.534;9.242;2023-06-04T16:42:37;8.68;;;5.00;;
43962;SDS011;29622;45.534;9.242;2023-06-04T16:47:38;6.32;;;4.15;;
43962;SDS011;29622;45.534;9.242;2023-06-04T16:52:40;8.45;;;6.28;;
43962;SDS011;29622;45.534;9.242;2023-06-04T16:57:41;8.40;;;4.50;;
43962;SDS011;29622;45.534;9.242;2023-06-04T17:02:41;6.03;;;3.53;;
43962;SDS011;29622;45.534;9.242;2023-06-04T17:07:42;6.45;;;4.15;;
43962;SDS011;29622;45.534;9.242;2023-06-04T17:12:43;8.65;;;3.92;;
43962;SDS011;29622;45.534;9.242;2023-06-04T17:17:44;5.70;;;2.67;;
43962;SDS011;29622;45.534;9.242;2023-06-04T17:22:45;5.80;;;2.50;;
43962;SDS011;29622;45.534;9.242;2023-06-04T17:27:46;8.32;;;2.30;;
43962;SDS011;29622;45.534;9.242;2023-06-04T17:32:51;4.35;;;2.22;;
43962;SDS011;29622;45.534;9.242;2023-06-04T17:37:51;5.03;;;2.60;;
43962;SDS011;29622;45.534;9.242;2023-06-04T17:42:52;7.10;;;2.67;;
43962;SDS011;29622;45.534;9.242;2023-06-04T17:47:53;3.72;;;2.00;;
43962;SDS011;29622;45.534;9.242;2023-06-04T17:52:54;4.43;;;2.20;;
43962;SDS011;29622;45.534;9.242;2023-06-04T17:57:54;5.05;;;2.50;;
43962;SDS011;29622;45.534;9.242;2023-06-04T18:02:56;6.90;;;3.13;;
43962;SDS011;29622;45.534;9.242;2023-06-04T18:07:57;8.95;;;3.13;;
43962;SDS011;29622;45.534;9.242;2023-06-04T18:12:57;8.73;;;3.30;;
43962;SDS011;29622;45.534;9.242;2023-06-04T18:17:58;5.10;;;2.50;;
43962;SDS011;29622;45.534;9.242;2023-06-04T18:23:02;7.00;;;3.38;;
43962;SDS011;29622;45.534;9.242;2023-06-04T18:28:04;4.38;;;2.63;;
43962;SDS011;29622;45.534;9.242;2023-06-04T18:33:05;7.65;;;3.17;;
43962;SDS011;29622;45.534;9.242;2023-06-04T18:38:05;12.70;;;2.75;;
43962;SDS011;29622;45.534;9.242;2023-06-04T18:43:06;6.55;;;2.90;;
43962;SDS011;29622;45.534;9.242;2023-06-04T18:48:07;5.57;;;3.03;;
43962;SDS011;29622;45.534;9.242;2023-06-04T18:53:08;10.95;;;4.30;;
43962;SDS011;29622;45.534;9.242;2023-06-04T18:58:14;10.50;;;4.55;;
43962;SDS011;29622;45.534;9.242;2023-06-04T19:03:14;6.93;;;3.78;;
43962;SDS011;29622;45.534;9.242;2023-06-04T19:08:16;5.40;;;3.83;;
43962;SDS011;29622;45.534;9.242;2023-06-04T19:13:17;8.60;;;4.57;;
43962;SDS011;29622;45.534;9.242;2023-06-04T19:18:20;12.45;;;6.40;;
43962;SDS011;29622;45.534;9.242;2023-06-04T19:23:20;9.88;;;5.50;;
43962;SDS011;29622;45.534;9.242;2023-06-04T19:28:21;15.70;;;6.57;;
43962;SDS011;29622;45.534;9.242;2023-06-04T19:33:22;11.23;;;6.47;;
43962;SDS011;29622;45.534;9.242;2023-06-04T19:38:23;15.50;;;7.00;;
43962;SDS011;29622;45.534;9.242;2023-06-04T19:43:24;9.18;;;6.03;;
43962;SDS011;29622;45.534;9.242;2023-06-04T19:48:25;8.63;;;5.80;;
43962;SDS011;29622;45.534;9.242;2023-06-04T19:53:26;9.85;;;4.45;;
43962;SDS011;29622;45.534;9.242;2023-06-04T19:58:27;9.82;;;4.18;;
43962;SDS011;29622;45.534;9.242;2023-06-04T20:03:27;7.85;;;3.70;;
43962;SDS011;29622;45.534;9.242;2023-06-04T20:08:31;8.95;;;3.83;;
43962;SDS011;29622;45.534;9.242;2023-06-04T20:13:32;9.32;;;3.95;;
43962;SDS011;29622;45.534;9.242;2023-06-04T20:18:33;7.78;;;3.72;;
43962;SDS011;29622;45.534;9.242;2023-06-04T20:23:35;13.45;;;4.93;;
43962;SDS011;29622;45.534;9.242;2023-06-04T20:28:36;9.93;;;4.20;;
43962;SDS011;29622;45.534;9.242;2023-06-04T20:33:36;8.57;;;3.58;;
43962;SDS011;29622;45.534;9.242;2023-06-04T20:38:37;10.05;;;3.45;;
43962;SDS011;29622;45.534;9.242;2023-06-04T20:43:44;11.13;;;4.40;;
43962;SDS011;29622;45.534;9.242;2023-06-04T20:48:49;7.97;;;3.63;;
43962;SDS011;29622;45.534;9.242;2023-06-04T20:53:50;6.18;;;3.85;;
43962;SDS011;29622;45.534;9.242;2023-06-04T20:58:51;9.73;;;3.05;;
43962;SDS011;29622;45.534;9.242;2023-06-04T21:03:52;6.63;;;3.85;;
43962;SDS011;29622;45.534;9.242;2023-06-04T21:08:52;8.70;;;3.17;;
43962;SDS011;29622;45.534;9.242;2023-06-04T21:13:53;9.02;;;5.15;;
43962;SDS011;29622;45.534;9.242;2023-06-04T21:18:56;6.25;;;3.28;;
43962;SDS011;29622;45.534;9.242;2023-06-04T21:23:57;8.45;;;5.30;;
43962;SDS011;29622;45.534;9.242;2023-06-04T21:28:57;9.18;;;4.85;;
43962;SDS011;29622;45.534;9.242;2023-06-04T21:33:58;8.38;;;4.57;;
43962;SDS011;29622;45.534;9.242;2023-06-04T21:38:59;7.95;;;4.30;;
43962;SDS011;29622;45.534;9.242;2023-06-04T21:43:59;13.95;;;6.03;;
43962;SDS011;29622;45.534;9.242;2023-06-04T21:49:00;9.48;;;4.38;;
43962;SDS011;29622;45.534;9.242;2023-06-04T21:54:00;15.10;;;6.00;;
43962;SDS011;29622;45.534;9.242;2023-06-04T21:59:02;16.17;;;6.53;;
43962;SDS011;29622;45.534;9.242;2023-06-04T22:04:03;9.15;;;4.32;;
43962;SDS011;29622;45.534;9.242;2023-06-04T22:09:07;8.88;;;5.10;;
43962;SDS011;29622;45.534;9.242;2023-06-04T22:14:10;9.50;;;5.05;;
43962;SDS011;29622;45.534;9.242;2023-06-04T22:19:11;10.95;;;5.68;;
43962;SDS011;29622;45.534;9.242;2023-06-04T22:24:12;8.93;;;5.00;;
43962;SDS011;29622;45.534;9.242;2023-06-04T22:29:13;8.52;;;5.03;;
43962;SDS011;29622;45.534;9.242;2023-06-04T22:34:13;7.10;;;4.65;;
43962;SDS011;29622;45.534;9.242;2023-06-04T22:39:14;6.93;;;4.43;;
43962;SDS011;29622;45.534;9.242;2023-06-04T22:44:18;10.40;;;4.97;;
43962;SDS011;29622;45.534;9.242;2023-06-04T22:49:18;9.40;;;3.22;;
43962;SDS011;29622;45.534;9.242;2023-06-04T22:54:19;7.38;;;4.15;;
43962;SDS011;29622;45.534;9.242;2023-06-04T22:59:20;5.93;;;3.90;;
43962;SDS011;29622;45.534;9.242;2023-06-04T23:04:20;8.05;;;4.40;;
43962;SDS011;29622;45.534;9.242;2023-06-04T23:09:21;9.60;;;4.45;;
43962;SDS011;29622;45.534;9.242;2023-06-04T23:14:22;8.30;;;3.67;;
43962;SDS011;29622;45.534;9.242;2023-06-04T23:19:23;9.35;;;4.60;;
43962;SDS011;29622;45.534;9.242;2023-06-04T23:24:23;7.13;;;3.97;;
43962;SDS011;29622;45.534;9.242;2023-06-04T23:29:24;7.55;;;4.03;;
43962;SDS011;29622;45.534;9.242;2023-06-04T23:34:25;7.90;;;4.90;;
43962;SDS011;29622;45.534;9.242;2023-06-04T23:39:25;7.72;;;4.53;;
43962;SDS011;29622;45.534;9.242;2023-06-04T23:44:26;6.68;;;4.47;;
43962;SDS011;29622;45.534;9.242;2023-06-04T23:49:27;7.47;;;3.90;;
43962;SDS011;29622;45.534;9.242;2023-06-04T23:54:27;8.50;;;4.10;;
43962;SDS011;29622;45.534;9.242;2023-06-04T23:59:28;6.72;;;2.60;;
